PWSweather.com
Personal Weather Stations
Station Observations

Castel Di SangroIT

Lat: 41.7738101, Lon: 14.1233667

Elevation: 800

Station Type: PCE FWS 20

http://www.meteocasteldisangro.altervista.org

Latest ConditionsUpdated 9:40:22 AM GMT+01:01 Saturday, Aug 24, 2019
Currently Today's Max Today's Min Today's Average
Temperature 70.0°F21.1°C 70.5°F21.4°C 55.4°F13.0°C 58.2°F14.6°C
Dew Point 58.1°F14.5°C 59.3°F15.2°C 55.1°F12.8°C 56.4°F13.6°C
Winds 0.9 mph SW1.4 kmh SW 1.5 mph -2.4 kmh - - 0.3 mph 0.5 kmh
Wind Gusts 2.2 mph3.5 kmh 3.8 mph6.1 kmh - -
Humidity 66% 99% 66% 94%
Pressure 30.27 in1025.1 mb 30.27 in1025.1 mb 30.18 in1022.0 mb -
Hour Temp Dew Point Humidity Winds Wind Gusts Pressure Precip Precip Rate Daily Precip Total
09:40 AM 70.0°F21.1°C 58.1°F14.5°C 66% 0.9 mph SW1.4 kmh SW 2.2 mph3.5 kmh 30.27 in1025.1 mb 0.00 in0.0 mm 0.00 in0.0 mm 0.00 in0.0 mm
09:30 AM 70.5°F21.4°C 58.6°F14.8°C 66% Calm Calm 0.7 mph1.1 kmh 30.26 in1024.7 mb 0.00 in0.0 mm 0.00 in0.0 mm 0.00 in0.0 mm
09:20 AM 68.5°F20.3°C 58.8°F14.9°C 71% 0.1 mph ESE0.2 kmh ESE 1.6 mph2.6 kmh 30.26 in1024.7 mb 0.00 in0.0 mm 0.00 in0.0 mm 0.00 in0.0 mm
09:10 AM 68.9°F20.5°C 58.3°F14.6°C 69% Calm Calm 1.6 mph2.6 kmh 30.27 in1025.1 mb 0.00 in0.0 mm 0.00 in0.0 mm 0.00 in0.0 mm
09:00 AM 66.7°F19.3°C 59.3°F15.2°C 77% 0.6 mph SW1.0 kmh SW 3.1 mph5.0 kmh 30.27 in1025.1 mb 0.00 in0.0 mm 0.00 in0.0 mm 0.00 in0.0 mm
08:50 AM 65.8°F18.8°C 58.8°F14.9°C 78% 1.1 mph SE1.8 kmh SE 3.1 mph5.0 kmh 30.27 in1025.1 mb 0.00 in0.0 mm 0.00 in0.0 mm 0.00 in0.0 mm
08:40 AM 65.8°F18.8°C 58.4°F14.7°C 77% 0.4 mph NE0.6 kmh NE 2.2 mph3.5 kmh 30.27 in1025.1 mb 0.00 in0.0 mm 0.00 in0.0 mm 0.00 in0.0 mm
08:30 AM 64.0°F17.8°C 58.1°F14.5°C 81% 0.7 mph E1.1 kmh E 3.8 mph6.1 kmh 30.27 in1025.1 mb 0.00 in0.0 mm 0.00 in0.0 mm 0.00 in0.0 mm
08:20 AM 63.0°F17.2°C 56.7°F13.7°C 80% 1.1 mph S1.8 kmh S 3.1 mph5.0 kmh 30.27 in1025.1 mb 0.00 in0.0 mm 0.00 in0.0 mm 0.00 in0.0 mm
08:10 AM 62.8°F17.1°C 56.2°F13.4°C 79% 1.4 mph SW2.3 kmh SW 3.8 mph6.1 kmh 30.27 in1025.1 mb 0.00 in0.0 mm 0.00 in0.0 mm 0.00 in0.0 mm
08:00 AM 63.0°F17.2°C 56.4°F13.6°C 79% 0.5 mph SW0.8 kmh SW 2.2 mph3.5 kmh 30.26 in1024.7 mb 0.00 in0.0 mm 0.00 in0.0 mm 0.00 in0.0 mm
07:50 AM 62.4°F16.9°C 57.5°F14.2°C 84% Calm Calm 0.7 mph1.1 kmh 30.26 in1024.7 mb 0.00 in0.0 mm 0.00 in0.0 mm 0.00 in0.0 mm
07:40 AM 60.1°F15.6°C 58.4°F14.7°C 94% 0.5 mph E0.8 kmh E 2.2 mph3.5 kmh 30.25 in1024.4 mb 0.00 in0.0 mm 0.00 in0.0 mm 0.00 in0.0 mm
07:30 AM 59.5°F15.3°C 58.7°F14.8°C 97% 0.4 mph NE0.6 kmh NE 1.6 mph2.6 kmh 30.25 in1024.4 mb 0.00 in0.0 mm 0.00 in0.0 mm 0.00 in0.0 mm
07:20 AM 58.3°F14.6°C 58.0°F14.4°C 99% 0.6 mph ENE1.0 kmh ENE 2.2 mph3.5 kmh 30.25 in1024.4 mb 0.00 in0.0 mm 0.00 in0.0 mm 0.00 in0.0 mm
07:10 AM 57.7°F14.3°C 57.5°F14.2°C 99% 0.5 mph ESE0.8 kmh ESE 2.2 mph3.5 kmh 30.25 in1024.4 mb 0.00 in0.0 mm 0.00 in0.0 mm 0.00 in0.0 mm
07:00 AM 57.2°F14.0°C 56.9°F13.8°C 99% 0.5 mph ESE0.8 kmh ESE 2.2 mph3.5 kmh 30.25 in1024.4 mb 0.00 in0.0 mm 0.00 in0.0 mm 0.00 in0.0 mm
06:50 AM 56.7°F13.7°C 56.4°F13.6°C 99% 0.9 mph E1.4 kmh E 3.1 mph5.0 kmh 30.25 in1024.4 mb 0.00 in0.0 mm 0.00 in0.0 mm 0.00 in0.0 mm
06:40 AM 56.5°F13.6°C 56.2°F13.4°C 99% 0.2 mph SSE0.3 kmh SSE 1.6 mph2.6 kmh 30.25 in1024.4 mb 0.00 in0.0 mm 0.00 in0.0 mm 0.00 in0.0 mm
06:30 AM 56.1°F13.4°C 55.9°F13.3°C 99% 0.2 mph E0.3 kmh E 1.6 mph2.6 kmh 30.24 in1024.0 mb 0.00 in0.0 mm 0.00 in0.0 mm 0.00 in0.0 mm
06:20 AM 55.8°F13.2°C 55.5°F13.1°C 99% 0.1 mph S0.2 kmh S 1.6 mph2.6 kmh 30.24 in1024.0 mb 0.00 in0.0 mm 0.00 in0.0 mm 0.00 in0.0 mm
06:10 AM 55.8°F13.2°C 55.5°F13.1°C 99% 0.2 mph NE0.3 kmh NE 2.2 mph3.5 kmh 30.24 in1024.0 mb 0.00 in0.0 mm 0.00 in0.0 mm 0.00 in0.0 mm
06:00 AM 55.8°F13.2°C 55.5°F13.1°C 99% Calm Calm 0.7 mph1.1 kmh 30.24 in1024.0 mb 0.00 in0.0 mm 0.00 in0.0 mm 0.00 in0.0 mm
05:50 AM 55.8°F13.2°C 55.5°F13.1°C 99% 0.2 mph E0.3 kmh E 1.6 mph2.6 kmh 30.24 in1024.0 mb 0.00 in0.0 mm 0.00 in0.0 mm 0.00 in0.0 mm
05:40 AM 55.9°F13.3°C 55.7°F13.2°C 99% 0.3 mph NE0.5 kmh NE 2.2 mph3.5 kmh 30.24 in1024.0 mb 0.00 in0.0 mm 0.00 in0.0 mm 0.00 in0.0 mm
05:30 AM 55.9°F13.3°C 55.7°F13.2°C 99% 0.2 mph NNE0.3 kmh NNE 1.6 mph2.6 kmh 30.23 in1023.7 mb 0.00 in0.0 mm 0.00 in0.0 mm 0.00 in0.0 mm
05:20 AM 55.9°F13.3°C 55.7°F13.2°C 99% Calm Calm 0.7 mph1.1 kmh 30.23 in1023.7 mb 0.00 in0.0 mm 0.00 in0.0 mm 0.00 in0.0 mm
05:10 AM 55.9°F13.3°C 55.7°F13.2°C 99% Calm Calm -- 30.23 in1023.7 mb 0.00 in0.0 mm 0.00 in0.0 mm 0.00 in0.0 mm
05:00 AM 55.6°F13.1°C 55.3°F12.9°C 99% Calm Calm 0.7 mph1.1 kmh 30.22 in1023.4 mb 0.00 in0.0 mm 0.00 in0.0 mm 0.00 in0.0 mm
04:50 AM 55.4°F13.0°C 55.1°F12.8°C 99% Calm Calm 0.7 mph1.1 kmh 30.22 in1023.4 mb 0.00 in0.0 mm 0.00 in0.0 mm 0.00 in0.0 mm
04:40 AM 55.4°F13.0°C 55.1°F12.8°C 99% 0.2 mph NNE0.3 kmh NNE 1.6 mph2.6 kmh 30.22 in1023.4 mb 0.00 in0.0 mm 0.00 in0.0 mm 0.00 in0.0 mm
04:30 AM 55.4°F13.0°C 55.1°F12.8°C 99% 0.4 mph NE0.6 kmh NE 2.2 mph3.5 kmh 30.22 in1023.4 mb 0.00 in0.0 mm 0.00 in0.0 mm 0.00 in0.0 mm
04:20 AM 55.8°F13.2°C 55.5°F13.1°C 99% 0.2 mph ENE0.3 kmh ENE 2.2 mph3.5 kmh 30.22 in1023.4 mb 0.00 in0.0 mm 0.00 in0.0 mm 0.00 in0.0 mm
04:10 AM 55.8°F13.2°C 55.5°F13.1°C 99% Calm Calm -- 30.22 in1023.4 mb 0.00 in0.0 mm 0.00 in0.0 mm 0.00 in0.0 mm
04:00 AM 55.8°F13.2°C 55.5°F13.1°C 99% 0.1 mph S0.2 kmh S 1.6 mph2.6 kmh 30.21 in1023.0 mb 0.00 in0.0 mm 0.00 in0.0 mm 0.00 in0.0 mm
03:50 AM 55.9°F13.3°C 55.7°F13.2°C 99% 0.5 mph ENE0.8 kmh ENE 3.1 mph5.0 kmh 30.21 in1023.0 mb 0.00 in0.0 mm 0.00 in0.0 mm 0.00 in0.0 mm
03:40 AM 56.1°F13.4°C 55.9°F13.3°C 99% 0.1 mph NE0.2 kmh NE 1.6 mph2.6 kmh 30.21 in1023.0 mb 0.00 in0.0 mm 0.00 in0.0 mm 0.00 in0.0 mm
03:30 AM 56.5°F13.6°C 56.2°F13.4°C 99% Calm Calm 1.6 mph2.6 kmh 30.21 in1023.0 mb 0.00 in0.0 mm 0.00 in0.0 mm 0.00 in0.0 mm
03:20 AM 56.5°F13.6°C 56.2°F13.4°C 99% 1.3 mph E2.1 kmh E 3.1 mph5.0 kmh 30.21 in1023.0 mb 0.00 in0.0 mm 0.00 in0.0 mm 0.00 in0.0 mm
03:10 AM 55.8°F13.2°C 55.5°F13.1°C 99% 1.5 mph ENE2.4 kmh ENE 3.1 mph5.0 kmh 30.21 in1023.0 mb 0.00 in0.0 mm 0.00 in0.0 mm 0.00 in0.0 mm
03:00 AM 55.4°F13.0°C 55.1°F12.8°C 99% 0.1 mph NE0.2 kmh NE 1.6 mph2.6 kmh 30.21 in1023.0 mb 0.00 in0.0 mm 0.00 in0.0 mm 0.00 in0.0 mm
02:50 AM 55.4°F13.0°C 55.1°F12.8°C 99% Calm Calm 1.6 mph2.6 kmh 30.20 in1022.7 mb 0.00 in0.0 mm 0.00 in0.0 mm 0.00 in0.0 mm
02:40 AM 55.9°F13.3°C 55.7°F13.2°C 99% Calm Calm 1.6 mph2.6 kmh 30.20 in1022.7 mb 0.00 in0.0 mm 0.00 in0.0 mm 0.00 in0.0 mm
02:30 AM 55.9°F13.3°C 55.7°F13.2°C 99% 0.1 mph NE0.2 kmh NE 1.6 mph2.6 kmh 30.20 in1022.7 mb 0.00 in0.0 mm 0.00 in0.0 mm 0.00 in0.0 mm
02:20 AM 56.1°F13.4°C 55.9°F13.3°C 99% 0.1 mph SW0.2 kmh SW 1.6 mph2.6 kmh 30.20 in1022.7 mb 0.00 in0.0 mm 0.00 in0.0 mm 0.00 in0.0 mm
02:10 AM 55.8°F13.2°C 55.5°F13.1°C 99% 0.1 mph SSE0.2 kmh SSE 1.6 mph2.6 kmh 30.20 in1022.7 mb 0.00 in0.0 mm 0.00 in0.0 mm 0.00 in0.0 mm
02:00 AM 55.6°F13.1°C 55.3°F12.9°C 99% Calm Calm 0.7 mph1.1 kmh 30.20 in1022.7 mb 0.00 in0.0 mm 0.00 in0.0 mm 0.00 in0.0 mm
01:50 AM 55.8°F13.2°C 55.5°F13.1°C 99% Calm Calm 0.7 mph1.1 kmh 30.19 in1022.4 mb 0.00 in0.0 mm 0.00 in0.0 mm 0.00 in0.0 mm
01:40 AM 56.1°F13.4°C 55.9°F13.3°C 99% 0.1 mph W0.2 kmh W 1.6 mph2.6 kmh 30.19 in1022.4 mb 0.00 in0.0 mm 0.00 in0.0 mm 0.00 in0.0 mm
01:30 AM 56.1°F13.4°C 55.9°F13.3°C 99% 0.2 mph NE0.3 kmh NE 1.6 mph2.6 kmh 30.19 in1022.4 mb 0.00 in0.0 mm 0.00 in0.0 mm 0.00 in0.0 mm
01:20 AM 55.9°F13.3°C 55.7°F13.2°C 99% 0.1 mph NE0.2 kmh NE 2.2 mph3.5 kmh 30.19 in1022.4 mb 0.00 in0.0 mm 0.00 in0.0 mm 0.00 in0.0 mm
01:10 AM 55.9°F13.3°C 55.7°F13.2°C 99% Calm Calm 1.6 mph2.6 kmh 30.19 in1022.4 mb 0.00 in0.0 mm 0.00 in0.0 mm 0.00 in0.0 mm
01:00 AM 56.1°F13.4°C 55.9°F13.3°C 99% 0.1 mph NNE0.2 kmh NNE 1.6 mph2.6 kmh 30.19 in1022.4 mb 0.00 in0.0 mm 0.00 in0.0 mm 0.00 in0.0 mm
12:50 AM 56.1°F13.4°C 55.9°F13.3°C 99% 0.3 mph NE0.5 kmh NE 1.6 mph2.6 kmh 30.18 in1022.0 mb 0.00 in0.0 mm 0.00 in0.0 mm 0.00 in0.0 mm
12:40 AM 56.3°F13.5°C 56.0°F13.3°C 99% 0.4 mph NE0.6 kmh NE 2.2 mph3.5 kmh 30.18 in1022.0 mb 0.00 in0.0 mm 0.00 in0.0 mm 0.00 in0.0 mm
12:30 AM 56.3°F13.5°C 56.0°F13.3°C 99% 0.2 mph NE0.3 kmh NE 2.2 mph3.5 kmh 30.18 in1022.0 mb 0.00 in0.0 mm 0.00 in0.0 mm 0.00 in0.0 mm
12:20 AM 56.7°F13.7°C 56.4°F13.6°C 99% 0.7 mph E1.1 kmh E 3.1 mph5.0 kmh 30.18 in1022.0 mb 0.00 in0.0 mm 0.00 in0.0 mm 0.00 in0.0 mm
12:10 AM 57.0°F13.9°C 56.8°F13.8°C 99% 0.8 mph S1.3 kmh S 3.1 mph5.0 kmh 30.18 in1022.0 mb 0.00 in0.0 mm 0.00 in0.0 mm 0.00 in0.0 mm
12:00 AM 56.8°F13.8°C 56.6°F13.7°C 99% 0.5 mph SSE0.8 kmh SSE 3.8 mph6.1 kmh 30.18 in1022.0 mb 0.00 in0.0 mm 0.00 in0.0 mm 0.00 in0.0 mm